Time;durP1;ratioP1;P1;durP2;ratioP2;P2;SDS_P1;SDS_P2;PMS_P1;PMS_P2;Temp;Humidity;BMP_temperature;BMP_pressure;BME280_temperature;BME280_humidity;BME280_pressure;Samples;Min_cycle;Max_cycle;Signal;HPM_P1;HPM_P2
2022/04/22 00:00:28;;;;;;;6.28;5.00;;;15.50;46.70;;;;;;5070772;28;20515;-51
2022/04/22 00:02:55;;;;;;;5.85;5.25;;;15.40;46.90;;;;;;5070766;28;20064;-48
2022/04/22 00:05:25;;;;;;;6.13;5.57;;;15.40;47.00;;;;;;5066501;28;20097;-50
2022/04/22 00:07:52;;;;;;;5.88;5.28;;;15.40;47.20;;;;;;5069258;28;20086;-48
2022/04/22 00:10:23;;;;;;;6.35;5.55;;;15.40;47.30;;;;;;5069304;28;20044;-50
2022/04/22 00:12:50;;;;;;;6.90;5.45;;;15.30;47.20;;;;;;5069444;28;20141;-48
2022/04/22 00:15:22;;;;;;;6.72;5.60;;;15.30;47.50;;;;;;5065055;28;20037;-51
2022/04/22 00:17:49;;;;;;;5.47;4.97;;;15.30;47.80;;;;;;5051725;28;20549;-49
2022/04/22 00:20:16;;;;;;;7.45;5.60;;;15.30;47.70;;;;;;5067472;28;20037;-48
2022/04/22 00:22:45;;;;;;;6.20;5.55;;;15.20;47.80;;;;;;5069081;28;20067;-52
2022/04/22 00:25:14;;;;;;;6.60;5.25;;;15.20;47.90;;;;;;5069441;28;20056;-49
2022/04/22 00:27:41;;;;;;;6.30;5.13;;;15.20;48.00;;;;;;5063151;28;20067;-48
2022/04/22 00:30:11;;;;;;;6.07;5.45;;;15.20;48.10;;;;;;5052064;28;20071;-51
2022/04/22 00:32:38;;;;;;;6.38;5.78;;;15.10;48.30;;;;;;5067926;28;20056;-49
2022/04/22 00:35:07;;;;;;;6.15;5.55;;;15.10;48.30;;;;;;5065925;28;20048;-52
2022/04/22 00:37:33;;;;;;;8.15;5.63;;;15.10;48.50;;;;;;5069333;28;20036;-50
2022/04/22 00:40:03;;;;;;;5.45;4.95;;;15.00;48.50;;;;;;5070161;28;20041;-48
2022/04/22 00:42:31;;;;;;;5.78;5.07;;;15.00;48.60;;;;;;5067964;28;20500;-51
2022/04/22 00:44:58;;;;;;;6.60;4.80;;;15.00;48.70;;;;;;5064644;28;20044;-49
2022/04/22 00:47:25;;;;;;;6.43;5.82;;;14.90;48.70;;;;;;5068193;28;20122;-50
2022/04/22 00:49:52;;;;;;;6.78;5.68;;;14.90;48.90;;;;;;5069874;28;20682;-48
2022/04/22 00:52:21;;;;;;;6.20;5.47;;;14.90;49.10;;;;;;5065148;28;20048;-48
2022/04/22 00:54:52;;;;;;;7.40;5.95;;;14.90;49.20;;;;;;5065024;28;20056;-47
2022/04/22 00:57:22;;;;;;;6.30;5.63;;;14.80;49.50;;;;;;5068627;28;20040;-48
2022/04/22 00:59:53;;;;;;;6.53;5.32;;;14.80;49.20;;;;;;5069067;28;20040;-48
2022/04/22 01:02:23;;;;;;;6.63;6.03;;;14.80;49.40;;;;;;5065912;28;20040;-50
2022/04/22 01:10:26;;;;;;;6.65;5.75;;;14.70;49.60;;;;;;5063319;28;20172;-49
2022/04/22 01:12:59;;;;;;;6.50;5.40;;;14.70;49.60;;;;;;5061497;28;20045;-49
2022/04/22 01:15:26;;;;;;;6.00;5.38;;;14.60;49.70;;;;;;5066353;28;20385;-52
2022/04/22 01:17:55;;;;;;;6.28;5.60;;;14.60;49.80;;;;;;5058185;28;20059;-48
2022/04/22 01:20:22;;;;;;;7.55;5.68;;;14.60;50.20;;;;;;5068510;28;20079;-51
2022/04/22 01:22:56;;;;;;;7.25;6.28;;;14.50;50.00;;;;;;5068033;28;20042;-51
2022/04/22 01:25:26;;;;;;;7.80;5.78;;;14.50;50.10;;;;;;5069169;28;20066;-51
2022/04/22 01:27:56;;;;;;;7.20;6.00;;;14.50;50.10;;;;;;5066017;28;20048;-47
2022/04/22 01:30:23;;;;;;;8.55;6.55;;;14.40;50.20;;;;;;5066280;28;20102;-51
2022/04/22 01:32:58;;;;;;;6.53;5.88;;;14.30;50.30;;;;;;5065814;28;20111;-47
2022/04/22 01:35:25;;;;;;;7.70;5.65;;;14.30;50.80;;;;;;5068706;28;20071;-51
2022/04/22 01:37:57;;;;;;;8.23;6.68;;;14.30;50.70;;;;;;5068592;28;20048;-47
2022/04/22 01:40:24;;;;;;;7.53;6.25;;;14.20;50.70;;;;;;5066335;28;20407;-51
2022/04/22 01:42:53;;;;;;;7.47;6.72;;;14.10;50.70;;;;;;5067874;28;20106;-47
2022/04/22 01:45:25;;;;;;;6.95;5.93;;;14.10;51.00;;;;;;5068725;28;20128;-52
2022/04/22 01:47:52;;;;;;;8.45;7.03;;;14.10;51.00;;;;;;5065729;28;20045;-47
2022/04/22 01:50:20;;;;;;;9.05;7.35;;;14.00;51.10;;;;;;5065907;28;20040;-47
2022/04/22 01:52:46;;;;;;;9.50;7.20;;;14.00;51.30;;;;;;5067899;28;20044;-50
2022/04/22 01:55:13;;;;;;;8.90;7.20;;;13.90;51.40;;;;;;5068610;28;20568;-48
2022/04/22 01:57:43;;;;;;;12.80;8.80;;;13.80;52.20;;;;;;5065798;28;20043;-51
2022/04/22 02:00:11;;;;;;;9.68;7.70;;;13.80;51.80;;;;;;5066481;28;20098;-52
2022/04/22 02:02:40;;;;;;;9.80;7.68;;;13.80;51.90;;;;;;5067988;28;20105;-50
2022/04/22 02:05:07;;;;;;;8.98;8.10;;;13.80;52.00;;;;;;5066802;28;20535;-49
2022/04/22 02:07:38;;;;;;;11.07;8.20;;;13.70;52.00;;;;;;5066467;28;20043;-47
2022/04/22 02:10:09;;;;;;;9.02;7.78;;;13.70;52.10;;;;;;5067351;28;20454;-51
2022/04/22 02:12:36;;;;;;;9.30;8.30;;;13.60;52.30;;;;;;5063226;28;20067;-48
2022/04/22 02:15:04;;;;;;;10.88;7.95;;;13.60;51.90;;;;;;5072261;28;20056;-47
2022/04/22 02:17:31;;;;;;;9.85;7.60;;;13.60;51.90;;;;;;5067043;28;20037;-50
2022/04/22 02:20:02;;;;;;;9.68;7.70;;;13.50;51.90;;;;;;5069273;28;20037;-47
2022/04/22 02:22:29;;;;;;;8.68;7.20;;;13.50;51.80;;;;;;5071458;28;20045;-48
2022/04/22 02:25:00;;;;;;;9.25;8.02;;;13.40;51.80;;;;;;5071971;28;20095;-48
2022/04/22 02:30:15;;;;;;;9.45;7.50;;;13.30;51.80;;;;;;5071878;28;20095;-49
2022/04/22 02:32:42;;;;;;;9.82;7.75;;;13.20;51.80;;;;;;5072169;28;20037;-46
2022/04/22 02:35:13;;;;;;;10.40;8.30;;;13.10;52.10;;;;;;5070346;28;20036;-51
2022/04/22 02:37:40;;;;;;;9.40;8.05;;;13.10;53.00;;;;;;5066866;28;20035;-52
2022/04/22 02:40:10;;;;;;;9.38;8.32;;;13.00;52.90;;;;;;5066155;28;20044;-49
2022/04/22 02:45:27;;;;;;;11.45;7.55;;;12.90;53.30;;;;;;5069005;28;20040;-48
2022/04/22 02:48:01;;;;;;;10.88;7.25;;;12.90;53.40;;;;;;5068788;28;20606;-48
2022/04/22 02:50:28;;;;;;;10.35;8.13;;;12.90;53.70;;;;;;5072243;28;20041;-48
2022/04/22 02:52:59;;;;;;;10.82;8.15;;;12.90;53.90;;;;;;5070067;28;20044;-52
2022/04/22 02:55:34;;;;;;;10.93;8.27;;;12.80;54.40;;;;;;5066639;28;20044;-48
2022/04/22 02:58:03;;;;;;;8.75;7.68;;;12.90;54.30;;;;;;5071585;28;20060;-51
2022/04/22 03:00:34;;;;;;;10.25;7.43;;;12.90;54.60;;;;;;5072585;28;20437;-50
2022/04/22 03:03:02;;;;;;;9.95;7.70;;;12.90;54.60;;;;;;5068192;28;20068;-51
2022/04/22 03:05:29;;;;;;;8.20;6.82;;;12.90;54.90;;;;;;5067689;28;20509;-52
2022/04/22 03:07:59;;;;;;;8.88;7.68;;;12.90;54.80;;;;;;5071986;28;20032;-48
2022/04/22 03:10:25;;;;;;;8.48;7.13;;;12.90;54.80;;;;;;5060995;28;20045;-47
2022/04/22 03:12:52;;;;;;;10.35;8.02;;;12.90;54.90;;;;;;5058852;28;20044;-48
2022/04/22 03:15:27;;;;;;;8.88;7.22;;;12.90;55.00;;;;;;5070076;28;20131;-50
2022/04/22 03:17:59;;;;;;;10.65;7.38;;;12.90;55.10;;;;;;5069231;28;20076;-47
2022/04/22 03:20:29;;;;;;;9.43;7.53;;;13.00;55.10;;;;;;5069793;28;20041;-46
2022/04/22 03:22:56;;;;;;;10.23;7.30;;;13.00;55.50;;;;;;5067013;28;20084;-52
2022/04/22 03:25:23;;;;;;;8.98;7.60;;;13.00;55.30;;;;;;5069466;28;20100;-51
2022/04/22 03:27:51;;;;;;;8.50;7.32;;;13.00;55.40;;;;;;5070898;28;20492;-52
2022/04/22 03:30:18;;;;;;;7.90;7.10;;;13.10;55.50;;;;;;5053965;28;20064;-52
2022/04/22 03:32:45;;;;;;;8.55;7.38;;;13.10;55.70;;;;;;5046996;28;20033;-51
2022/04/22 03:35:12;;;;;;;10.20;7.75;;;13.10;55.60;;;;;;5069004;28;20044;-50
2022/04/22 03:37:43;;;;;;;8.07;6.70;;;13.20;55.80;;;;;;5070667;28;20063;-52
2022/04/22 03:40:11;;;;;;;8.75;7.60;;;13.20;55.70;;;;;;5071437;28;20075;-49
2022/04/22 03:42:37;;;;;;;11.40;9.00;;;13.20;55.70;;;;;;5065217;28;20496;-49
2022/04/22 03:45:06;;;;;;;10.48;8.00;;;13.30;55.60;;;;;;5052844;28;20097;-50
2022/04/22 03:47:32;;;;;;;10.32;7.80;;;13.30;55.60;;;;;;5070856;28;20059;-50
2022/04/22 03:49:59;;;;;;;10.73;7.75;;;13.30;55.60;;;;;;5071567;28;20123;-52
2022/04/22 03:52:26;;;;;;;9.02;7.70;;;13.30;55.60;;;;;;5065044;28;20040;-52
2022/04/22 03:54:53;;;;;;;10.65;8.10;;;13.30;55.60;;;;;;5070290;28;20075;-50
2022/04/22 04:00:06;;;;;;;11.88;8.95;;;13.30;55.70;;;;;;5069186;28;20571;-51
2022/04/22 04:02:35;;;;;;;10.85;8.45;;;13.30;55.70;;;;;;5066420;28;20040;-50
2022/04/22 04:05:03;;;;;;;11.13;8.65;;;13.40;55.80;;;;;;5069657;28;20515;-50
2022/04/22 04:07:29;;;;;;;12.85;8.90;;;13.40;55.90;;;;;;5069497;28;20044;-51
2022/04/22 04:18:15;;;;;;;10.73;8.45;;;13.50;55.70;;;;;;5066980;28;20071;-48
2022/04/22 04:23:37;;;;;;;11.32;9.63;;;13.60;55.60;;;;;;5068638;28;20044;-50
2022/04/22 04:26:06;;;;;;;16.60;11.02;;;13.60;55.80;;;;;;5069179;28;20037;-47
2022/04/22 04:28:37;;;;;;;13.82;9.63;;;13.60;55.50;;;;;;5066614;28;20538;-48
2022/04/22 04:31:07;;;;;;;14.02;10.02;;;13.70;55.40;;;;;;5053664;28;20055;-46
2022/04/22 04:33:41;;;;;;;13.15;9.82;;;13.60;55.50;;;;;;5052718;28;20155;-51
2022/04/22 04:36:13;;;;;;;12.38;9.90;;;13.60;56.20;;;;;;5062744;28;20161;-48
2022/04/22 04:38:42;;;;;;;12.73;9.73;;;13.70;55.60;;;;;;5063046;28;20040;-48
2022/04/22 04:41:12;;;;;;;15.63;10.23;;;13.70;55.80;;;;;;5071237;28;20036;-47
2022/04/22 04:43:40;;;;;;;15.00;10.48;;;13.70;55.70;;;;;;5067637;28;20050;-50
2022/04/22 04:46:07;;;;;;;14.73;10.50;;;13.70;55.70;;;;;;5068795;28;20115;-50
2022/04/22 04:48:36;;;;;;;13.18;10.18;;;13.70;55.70;;;;;;5045514;28;20051;-49
2022/04/22 04:51:03;;;;;;;13.90;10.65;;;13.70;55.80;;;;;;5068191;28;20036;-49
2022/04/22 04:53:30;;;;;;;12.95;10.15;;;13.70;55.80;;;;;;5068214;28;20129;-48
2022/04/22 04:55:57;;;;;;;14.90;10.60;;;13.70;55.90;;;;;;5068399;28;20081;-49
2022/04/22 04:58:23;;;;;;;16.25;10.80;;;13.70;56.00;;;;;;5067653;28;20522;-50
2022/04/22 05:00:51;;;;;;;12.90;10.45;;;13.70;55.80;;;;;;5069565;28;20033;-47
2022/04/22 05:03:18;;;;;;;13.63;9.98;;;13.70;55.80;;;;;;5068760;28;20400;-48
2022/04/22 05:05:45;;;;;;;15.50;10.88;;;13.70;55.80;;;;;;5066343;28;20102;-47
2022/04/22 05:08:12;;;;;;;13.88;10.07;;;13.70;55.80;;;;;;5067376;28;20044;-48
2022/04/22 05:10:39;;;;;;;13.02;10.77;;;13.70;55.90;;;;;;5069296;28;20496;-49
2022/04/22 05:13:06;;;;;;;14.35;10.63;;;13.70;55.90;;;;;;5051501;28;20041;-49
2022/04/22 05:15:33;;;;;;;14.93;10.75;;;13.60;55.80;;;;;;5066067;28;20032;-50
2022/04/22 05:18:02;;;;;;;15.98;10.93;;;13.60;56.00;;;;;;5068388;28;20037;-50
2022/04/22 05:20:32;;;;;;;15.23;10.02;;;13.60;56.00;;;;;;5069939;28;20032;-47
2022/04/22 05:22:59;;;;;;;13.90;10.55;;;13.60;56.10;;;;;;5047079;28;20049;-48
2022/04/22 05:25:26;;;;;;;15.60;11.13;;;13.60;56.00;;;;;;5053968;28;20507;-47
2022/04/22 05:27:53;;;;;;;13.48;10.88;;;13.60;56.00;;;;;;5065261;28;20041;-49
2022/04/22 05:33:05;;;;;;;16.50;11.20;;;13.60;56.20;;;;;;5064273;28;20049;-53
2022/04/22 05:35:32;;;;;;;13.13;10.32;;;13.50;56.00;;;;;;5064388;28;20060;-54
2022/04/22 05:38:02;;;;;;;14.45;11.18;;;13.50;56.10;;;;;;5067631;28;20063;-51
2022/04/22 05:40:30;;;;;;;15.18;11.23;;;13.50;56.40;;;;;;5063134;28;20043;-54
2022/04/22 05:42:58;;;;;;;17.08;11.82;;;13.50;56.40;;;;;;5065722;28;20044;-51
2022/04/22 05:45:26;;;;;;;17.08;11.50;;;13.50;56.60;;;;;;5066589;28;20548;-52
2022/04/22 05:47:53;;;;;;;14.40;11.48;;;13.50;56.60;;;;;;5059923;28;20045;-52
2022/04/22 05:50:21;;;;;;;15.13;11.68;;;13.50;56.60;;;;;;5066489;28;20114;-48
2022/04/22 05:52:48;;;;;;;17.05;11.52;;;13.50;56.80;;;;;;5062186;28;20500;-53
2022/04/22 05:55:17;;;;;;;15.43;11.65;;;13.50;56.70;;;;;;5060999;28;20048;-54
2022/04/22 05:57:45;;;;;;;14.13;10.90;;;13.50;56.90;;;;;;5065549;28;20043;-52
2022/04/22 06:00:15;;;;;;;15.07;11.82;;;13.50;56.80;;;;;;5067594;28;20102;-52
2022/04/22 06:02:43;;;;;;;17.02;12.18;;;13.50;57.00;;;;;;5067023;28;20655;-51
2022/04/22 06:05:12;;;;;;;15.43;12.45;;;13.50;57.00;;;;;;5062469;28;20462;-53
2022/04/22 06:07:41;;;;;;;16.25;11.27;;;13.50;57.10;;;;;;5067071;28;20044;-49
2022/04/22 06:12:55;;;;;;;17.73;12.20;;;13.50;57.20;;;;;;5054810;28;20033;-52
2022/04/22 06:15:22;;;;;;;14.73;11.40;;;13.50;57.00;;;;;;5064576;28;20474;-53
2022/04/22 06:17:48;;;;;;;18.27;11.70;;;13.50;57.20;;;;;;5047471;28;20041;-52
2022/04/22 06:20:15;;;;;;;21.85;13.07;;;13.60;57.20;;;;;;5060053;28;20169;-51
2022/04/22 06:22:42;;;;;;;16.45;11.35;;;13.70;57.30;;;;;;5063597;28;20088;-51
2022/04/22 06:25:10;;;;;;;16.17;11.98;;;13.60;57.20;;;;;;5066156;28;20109;-49
2022/04/22 06:27:42;;;;;;;17.08;11.52;;;13.60;57.20;;;;;;5068728;28;20048;-53
2022/04/22 06:30:17;;;;;;;18.38;12.63;;;13.70;57.50;;;;;;5066924;28;20064;-48
2022/04/22 06:32:46;;;;;;;20.45;13.27;;;13.80;57.60;;;;;;5065787;28;20443;-52
2022/04/22 06:35:14;;;;;;;17.35;13.25;;;13.80;57.20;;;;;;5067442;28;20098;-51
2022/04/22 06:37:50;;;;;;;14.88;11.18;;;13.80;57.10;;;;;;5065991;28;20615;-50
2022/04/22 06:45:50;;;;;;;17.52;12.35;;;13.90;56.90;;;;;;5066269;28;20541;-50
2022/04/22 06:48:25;;;;;;;18.17;12.57;;;14.00;56.90;;;;;;5064227;28;20040;-50
2022/04/22 06:51:11;;;;;;;14.20;11.40;;;14.00;57.00;;;;;;5067562;28;20066;-52
2022/04/22 06:53:39;;;;;;;16.50;12.63;;;14.10;57.00;;;;;;5049175;28;20040;-49
2022/04/22 06:56:06;;;;;;;18.48;12.35;;;14.10;57.00;;;;;;5063045;28;20095;-51
2022/04/22 06:58:37;;;;;;;17.45;13.30;;;14.10;57.10;;;;;;5070725;28;20086;-53
2022/04/22 07:01:05;;;;;;;18.33;13.80;;;14.20;57.40;;;;;;5072008;28;20407;-52
2022/04/22 07:03:52;;;;;;;17.70;13.75;;;14.20;57.00;;;;;;5070372;28;20040;-54
2022/04/22 07:06:19;;;;;;;17.95;13.32;;;14.30;56.90;;;;;;5050010;28;20053;-51
2022/04/22 07:08:46;;;;;;;16.45;13.30;;;14.30;56.80;;;;;;5067083;28;20098;-50
2022/04/22 07:11:21;;;;;;;16.65;12.90;;;14.30;56.90;;;;;;5072555;28;20055;-51
2022/04/22 07:13:48;;;;;;;17.42;13.32;;;14.40;57.10;;;;;;5068984;28;20549;-49
2022/04/22 07:16:17;;;;;;;15.88;13.90;;;14.30;57.00;;;;;;5072064;28;20427;-53
2022/04/22 07:18:45;;;;;;;19.35;14.25;;;14.40;57.20;;;;;;5064282;28;20044;-50
2022/04/22 07:21:12;;;;;;;16.75;13.50;;;14.50;57.10;;;;;;5071912;28;20041;-49
2022/04/22 07:23:39;;;;;;;19.27;14.18;;;14.50;57.10;;;;;;5069503;28;20040;-48
2022/04/22 07:26:10;;;;;;;20.58;15.50;;;14.60;57.30;;;;;;5069982;28;20512;-51
2022/04/22 07:28:38;;;;;;;17.67;14.38;;;14.60;57.80;;;;;;5048207;28;20036;-50
2022/04/22 07:31:09;;;;;;;18.10;14.57;;;14.60;57.50;;;;;;5071857;28;20106;-49
2022/04/22 07:33:36;;;;;;;16.23;13.23;;;14.70;57.30;;;;;;5069379;28;20646;-50
2022/04/22 07:36:03;;;;;;;15.98;12.88;;;14.80;57.10;;;;;;5068359;28;20062;-49
2022/04/22 07:38:30;;;;;;;16.08;13.20;;;14.80;57.10;;;;;;5068698;28;20048;-56
2022/04/22 07:40:57;;;;;;;18.88;14.18;;;14.80;57.00;;;;;;5069528;28;20064;-50
2022/04/22 07:48:56;;;;;;;15.38;12.40;;;15.20;57.00;;;;;;5068592;28;20041;-53
2022/04/22 07:51:25;;;;;;;13.65;11.50;;;15.30;56.60;;;;;;5071005;28;20040;-53
2022/04/22 07:53:53;;;;;;;14.45;12.05;;;15.40;56.20;;;;;;5069025;28;20036;-52
2022/04/22 07:56:20;;;;;;;14.23;10.77;;;15.50;55.80;;;;;;5050716;28;20110;-52
2022/04/22 07:58:47;;;;;;;13.82;11.63;;;15.60;55.60;;;;;;5069578;28;20535;-54
2022/04/22 08:01:14;;;;;;;15.23;11.98;;;15.70;55.40;;;;;;5071575;28;20045;-52
2022/04/22 08:03:41;;;;;;;13.18;11.50;;;15.70;55.40;;;;;;5065969;28;20040;-49
2022/04/22 08:06:09;;;;;;;15.18;11.95;;;15.80;55.10;;;;;;5068115;28;20036;-54
2022/04/22 08:08:36;;;;;;;13.48;10.95;;;15.90;55.10;;;;;;5068468;28;20047;-54
2022/04/22 08:11:03;;;;;;;16.48;11.40;;;15.90;55.00;;;;;;5052269;28;20044;-53
2022/04/22 08:13:31;;;;;;;13.85;11.32;;;16.00;55.00;;;;;;5067005;28;20040;-51
2022/04/22 08:15:58;;;;;;;14.20;11.38;;;16.10;54.70;;;;;;5069937;28;20101;-54
2022/04/22 08:18:25;;;;;;;14.00;10.73;;;16.20;54.60;;;;;;5069146;28;20114;-50
2022/04/22 08:20:52;;;;;;;14.35;11.02;;;16.30;54.30;;;;;;5069220;28;20037;-52
2022/04/22 08:23:21;;;;;;;14.82;11.13;;;16.40;54.10;;;;;;5055185;28;20037;-55
2022/04/22 08:25:48;;;;;;;12.52;10.82;;;16.50;53.90;;;;;;5054565;28;20040;-50
2022/04/22 08:28:15;;;;;;;12.50;10.32;;;16.60;53.50;;;;;;5068064;28;20071;-49
2022/04/22 08:30:41;;;;;;;13.52;10.60;;;16.50;53.50;;;;;;5070592;28;20094;-50
2022/04/22 08:33:08;;;;;;;13.20;10.40;;;16.60;53.10;;;;;;5067139;28;20123;-51
2022/04/22 08:35:35;;;;;;;12.63;11.13;;;16.70;53.00;;;;;;5069745;28;20037;-50
2022/04/22 08:38:03;;;;;;;10.93;9.02;;;16.70;52.80;;;;;;5064649;28;20399;-55
2022/04/22 08:40:31;;;;;;;12.38;9.45;;;16.70;52.70;;;;;;5066153;28;20036;-52
2022/04/22 08:43:01;;;;;;;12.82;10.43;;;16.80;52.60;;;;;;5063947;28;20091;-51
2022/04/22 08:45:28;;;;;;;11.07;9.95;;;16.90;52.70;;;;;;5064782;28;20040;-49
2022/04/22 08:50:44;;;;;;;10.20;8.23;;;17.10;52.50;;;;;;5063654;28;20040;-48
2022/04/22 08:53:17;;;;;;;10.48;8.25;;;17.10;52.20;;;;;;5064838;28;20040;-52
2022/04/22 08:55:44;;;;;;;;;;;17.30;51.50;;;;;;5066671;28;20040;-48
2022/04/22 08:58:13;;;;;;;9.70;7.38;;;17.40;51.30;;;;;;5068748;28;19921;-53
2022/04/22 09:00:41;;;;;;;8.63;7.43;;;17.40;50.60;;;;;;5066676;28;20090;-51
2022/04/22 09:03:09;;;;;;;9.35;7.38;;;17.50;50.30;;;;;;5065451;28;20064;-52
2022/04/22 09:05:38;;;;;;;10.15;7.88;;;17.60;50.10;;;;;;5067033;28;20520;-51
2022/04/22 09:08:07;;;;;;;7.68;6.90;;;17.60;49.70;;;;;;5067852;28;20508;-50
2022/04/22 09:10:38;;;;;;;9.63;7.53;;;17.60;49.10;;;;;;5066249;28;20048;-50
2022/04/22 09:13:10;;;;;;;10.00;7.00;;;17.60;49.00;;;;;;5066416;28;20044;-50
2022/04/22 09:15:39;;;;;;;8.25;7.15;;;17.60;49.10;;;;;;5067953;28;20110;-52
2022/04/22 09:18:29;;;;;;;8.88;7.70;;;17.60;49.20;;;;;;5064894;28;20124;-49
2022/04/22 09:21:02;;;;;;;7.70;6.65;;;17.60;49.20;;;;;;5068265;28;20036;-49
2022/04/22 09:23:33;;;;;;;9.02;7.57;;;17.60;49.40;;;;;;5065516;28;20044;-53
2022/04/22 09:26:02;;;;;;;9.32;7.28;;;17.60;50.10;;;;;;5067247;28;20105;-51
2022/04/22 09:28:29;;;;;;;9.40;7.20;;;17.70;50.50;;;;;;5065750;28;20127;-53
2022/04/22 09:31:04;;;;;;;9.18;7.13;;;17.80;50.10;;;;;;5069766;28;20041;-50
2022/04/22 09:33:41;;;;;;;7.38;6.68;;;18.00;49.80;;;;;;5066912;28;20033;-50
2022/04/22 09:45:06;;;;;;;7.95;6.20;;;18.40;47.80;;;;;;5065991;28;20052;-50
2022/04/22 09:47:35;;;;;;;6.78;5.75;;;18.50;47.80;;;;;;5065410;28;20108;-50
2022/04/22 09:50:05;;;;;;;9.98;7.20;;;18.50;47.50;;;;;;5066847;28;20126;-51
2022/04/22 09:52:34;;;;;;;8.05;5.45;;;18.50;47.10;;;;;;5067969;28;20048;-51
2022/04/22 09:55:09;;;;;;;6.50;5.80;;;18.60;46.90;;;;;;5048941;28;20040;-50
2022/04/22 09:57:59;;;;;;;7.13;5.70;;;18.60;46.90;;;;;;5066615;28;20049;-51
2022/04/22 10:00:31;;;;;;;5.40;4.80;;;18.70;47.10;;;;;;5065944;28;20800;-52
2022/04/22 10:02:58;;;;;;;5.57;4.53;;;18.70;46.90;;;;;;5066345;28;20044;-50
2022/04/22 10:05:32;;;;;;;5.75;4.95;;;18.80;46.20;;;;;;5065859;28;20447;-50
2022/04/22 10:08:02;;;;;;;5.93;4.72;;;18.80;45.70;;;;;;5065594;28;20505;-50
2022/04/22 10:10:39;;;;;;;6.05;5.40;;;18.80;45.60;;;;;;5069355;28;20044;-48
2022/04/22 10:13:12;;;;;;;8.02;4.90;;;18.90;45.50;;;;;;5066091;28;20514;-52
2022/04/22 10:15:41;;;;;;;5.70;5.07;;;18.90;45.70;;;;;;5062302;28;20388;-51
2022/04/22 10:18:12;;;;;;;6.78;5.25;;;19.00;45.30;;;;;;5067371;28;20108;-50
2022/04/22 10:20:39;;;;;;;6.68;5.55;;;19.00;45.00;;;;;;5068564;28;20549;-51
2022/04/22 10:23:06;;;;;;;6.13;5.20;;;19.10;45.60;;;;;;5066010;28;20090;-49
2022/04/22 10:25:33;;;;;;;7.30;5.13;;;19.10;45.30;;;;;;5065608;28;20068;-50
2022/04/22 10:28:04;;;;;;;5.78;5.18;;;19.20;45.10;;;;;;5068811;28;20574;-52
2022/04/22 10:30:32;;;;;;;6.50;4.35;;;19.40;45.20;;;;;;5052317;28;20048;-48
2022/04/22 10:32:59;;;;;;;5.40;4.43;;;19.40;44.60;;;;;;5069028;28;20478;-50
2022/04/22 10:35:26;;;;;;;4.55;3.97;;;19.50;43.70;;;;;;5068265;28;20059;-51
2022/04/22 10:37:54;;;;;;;4.88;4.35;;;19.60;43.90;;;;;;5068491;28;20702;-50
2022/04/22 10:40:24;;;;;;;7.15;5.03;;;19.70;43.90;;;;;;5069076;28;20041;-51
2022/04/22 10:42:52;;;;;;;7.70;4.70;;;19.90;43.30;;;;;;5054472;28;20029;-52
2022/04/22 10:48:28;;;;;;;5.03;4.40;;;20.00;43.00;;;;;;5067364;28;20040;-52
2022/04/22 10:51:00;;;;;;;4.78;4.22;;;20.20;42.30;;;;;;5065779;28;20045;-52
2022/04/22 10:53:33;;;;;;;9.23;5.00;;;20.30;43.60;;;;;;5063913;28;20056;-52
2022/04/22 10:56:26;;;;;;;5.70;5.15;;;20.40;42.90;;;;;;5064900;28;20302;-51
2022/04/22 10:59:21;;;;;;;5.85;5.25;;;20.50;42.70;;;;;;5065654;28;20045;-50
2022/04/22 11:01:48;;;;;;;6.15;4.93;;;20.60;42.10;;;;;;5065934;28;20808;-50
2022/04/22 11:04:24;;;;;;;5.32;4.43;;;20.70;42.60;;;;;;5064083;28;20041;-50
2022/04/22 11:06:53;;;;;;;7.28;4.93;;;20.80;42.20;;;;;;5068683;28;20118;-51
2022/04/22 11:09:27;;;;;;;6.15;4.72;;;20.90;41.80;;;;;;5067747;28;20083;-54
2022/04/22 11:11:55;;;;;;;5.88;5.35;;;21.00;41.30;;;;;;5068404;28;20041;-52
2022/04/22 11:14:25;;;;;;;6.13;4.55;;;21.10;41.30;;;;;;5051059;28;20045;-52
2022/04/22 11:17:15;;;;;;;6.45;5.32;;;21.10;41.00;;;;;;5069374;28;20075;-51
2022/04/22 11:20:05;;;;;;;7.60;5.05;;;21.10;40.80;;;;;;5067204;28;20122;-53
2022/04/22 11:22:56;;;;;;;6.03;5.00;;;21.10;40.90;;;;;;5064960;28;20093;-50
2022/04/22 11:25:27;;;;;;;6.88;5.30;;;21.10;40.90;;;;;;5057983;28;20037;-55
2022/04/22 11:27:55;;;;;;;5.83;5.23;;;21.00;41.20;;;;;;5051355;28;20053;-52
2022/04/22 11:30:24;;;;;;;11.75;7.95;;;21.00;41.40;;;;;;5064370;28;20049;-50
2022/04/22 11:33:23;;;;;;;6.30;5.60;;;21.00;41.40;;;;;;5069008;28;20127;-52
2022/04/22 11:35:53;;;;;;;6.53;5.90;;;20.90;41.20;;;;;;5075189;28;20051;-50
2022/04/22 11:38:21;;;;;;;6.95;5.70;;;20.90;41.40;;;;;;5067134;28;20109;-50
2022/04/22 11:40:51;;;;;;;6.70;5.30;;;20.90;41.60;;;;;;5068288;28;20048;-51
2022/04/22 11:43:23;;;;;;;5.63;5.00;;;20.90;41.70;;;;;;5069915;28;20063;-53
2022/04/22 11:45:50;;;;;;;5.97;5.38;;;20.90;41.50;;;;;;5068862;28;20106;-50
2022/04/22 11:48:22;;;;;;;6.10;5.43;;;20.90;41.40;;;;;;5067090;28;20041;-54
2022/04/22 11:50:50;;;;;;;5.72;5.13;;;21.00;41.00;;;;;;5067238;28;20044;-50
2022/04/22 11:53:26;;;;;;;6.17;5.53;;;21.00;41.30;;;;;;5071072;28;20454;-54
2022/04/22 11:55:53;;;;;;;6.00;5.40;;;21.00;41.00;;;;;;5068837;28;20287;-49
2022/04/22 11:58:23;;;;;;;6.85;5.82;;;21.00;41.10;;;;;;5066817;28;20037;-52
2022/04/22 12:06:31;;;;;;;5.65;5.00;;;21.10;41.30;;;;;;5051464;28;20036;-52
2022/04/22 12:09:04;;;;;;;5.43;4.82;;;21.10;41.30;;;;;;5063885;28;20632;-50
2022/04/22 12:11:41;;;;;;;5.50;5.00;;;21.20;41.40;;;;;;5066102;28;20044;-51
2022/04/22 12:14:08;;;;;;;6.15;5.55;;;21.30;41.10;;;;;;5035047;28;20098;-51
2022/04/22 12:16:34;;;;;;;5.93;5.38;;;21.30;41.00;;;;;;5063948;28;20060;-51
2022/04/22 12:19:02;;;;;;;7.07;5.30;;;21.40;41.10;;;;;;5066808;28;20060;-55
2022/04/22 12:21:33;;;;;;;6.93;5.88;;;21.50;41.00;;;;;;5070276;28;20036;-53
2022/04/22 12:24:02;;;;;;;6.20;5.47;;;21.60;40.50;;;;;;5069357;28;20750;-50
2022/04/22 12:26:40;;;;;;;6.00;5.38;;;21.70;40.70;;;;;;5066708;28;20047;-51
2022/04/22 12:29:11;;;;;;;5.50;5.00;;;21.90;40.10;;;;;;5064357;28;20652;-53
2022/04/22 12:31:46;;;;;;;5.22;4.65;;;22.10;40.60;;;;;;5063015;28;20044;-52
2022/04/22 12:34:15;;;;;;;5.55;5.05;;;22.20;40.00;;;;;;5035540;28;20090;-54
2022/04/22 12:36:51;;;;;;;6.47;5.95;;;22.40;40.20;;;;;;5048964;28;20459;-51
2022/04/22 12:39:41;;;;;;;7.80;5.72;;;22.50;39.30;;;;;;5065883;28;20839;-53
2022/04/22 12:42:17;;;;;;;7.13;6.43;;;22.70;38.60;;;;;;5061854;28;20782;-50
2022/04/22 12:53:27;;;;;;;5.68;5.05;;;22.80;38.30;;;;;;5057220;28;20047;-52
2022/04/22 12:56:02;;;;;;;5.60;4.77;;;22.80;38.00;;;;;;5063346;28;20043;-53
2022/04/22 12:58:29;;;;;;;6.80;5.57;;;22.80;38.10;;;;;;5066529;28;20309;-53
2022/04/22 13:00:56;;;;;;;5.38;4.82;;;22.80;37.90;;;;;;5067622;28;20044;-50
2022/04/22 13:03:36;;;;;;;5.15;4.63;;;22.80;38.00;;;;;;5068798;28;20040;-53
2022/04/22 13:06:03;;;;;;;4.50;4.07;;;22.80;38.00;;;;;;5066543;28;20044;-50
2022/04/22 13:08:30;;;;;;;5.95;4.70;;;22.80;38.60;;;;;;5068310;28;20407;-54
2022/04/22 13:10:59;;;;;;;4.88;3.97;;;22.90;38.90;;;;;;5061700;28;20455;-51
2022/04/22 13:13:27;;;;;;;5.60;4.45;;;23.00;38.90;;;;;;5060228;28;20613;-53
2022/04/22 13:15:54;;;;;;;4.72;4.32;;;23.20;38.70;;;;;;5053003;28;20116;-55
2022/04/22 13:18:21;;;;;;;5.80;4.88;;;23.40;38.50;;;;;;5037782;28;20087;-52
2022/04/22 13:20:47;;;;;;;5.53;5.03;;;23.70;38.00;;;;;;5050699;28;20783;-50
2022/04/22 13:23:14;;;;;;;5.88;5.35;;;23.80;37.40;;;;;;5030846;28;20132;-53
2022/04/22 13:25:41;;;;;;;5.35;4.85;;;24.00;37.30;;;;;;5050142;28;20068;-53
2022/04/22 13:28:07;;;;;;;8.57;5.68;;;24.00;36.90;;;;;;5045489;28;20343;-54
2022/04/22 13:30:38;;;;;;;6.20;5.60;;;24.00;36.20;;;;;;5049025;28;20416;-53
2022/04/22 13:33:05;;;;;;;7.05;5.88;;;24.00;35.90;;;;;;5051494;28;20036;-55
2022/04/22 13:35:31;;;;;;;5.85;5.25;;;24.00;36.00;;;;;;5065410;28;20025;-53
2022/04/22 13:37:58;;;;;;;7.53;6.82;;;23.90;36.00;;;;;;5060471;28;20704;-51
2022/04/22 13:40:26;;;;;;;6.30;5.70;;;23.80;35.90;;;;;;5065874;28;20050;-52
2022/04/22 13:42:53;;;;;;;5.65;5.15;;;23.70;36.00;;;;;;5047200;28;20041;-52
2022/04/22 13:53:36;;;;;;;6.88;6.18;;;23.40;36.90;;;;;;5058578;28;20045;-50
2022/04/22 13:56:03;;;;;;;7.65;6.38;;;23.40;37.00;;;;;;5055837;28;20067;-57
2022/04/22 13:58:32;;;;;;;6.53;5.85;;;23.30;37.20;;;;;;5056968;28;20041;-56
2022/04/22 14:01:03;;;;;;;13.57;7.47;;;23.30;38.10;;;;;;5066159;28;20032;-50
2022/04/22 14:03:32;;;;;;;7.53;6.75;;;23.40;37.30;;;;;;5069295;28;20032;-54
2022/04/22 14:05:59;;;;;;;6.72;6.03;;;23.40;37.20;;;;;;5070293;28;20499;-51
2022/04/22 14:08:30;;;;;;;8.23;6.78;;;23.50;36.90;;;;;;5068288;28;20036;-52
2022/04/22 14:10:57;;;;;;;7.70;6.15;;;23.40;36.70;;;;;;5072730;28;20032;-50